sensor_id;sensor_type;location;lat;lon;timestamp;P1;durP1;ratioP1;P2;durP2;ratioP2
65418;SDS011;52027;50.658;14.004;2022-08-21T00:02:17;5.15;;;3.70;;
65418;SDS011;52027;50.658;14.004;2022-08-21T00:04:44;4.95;;;3.83;;
65418;SDS011;52027;50.658;14.004;2022-08-21T00:07:11;4.90;;;3.90;;
65418;SDS011;52027;50.658;14.004;2022-08-21T00:09:37;4.80;;;4.00;;
65418;SDS011;52027;50.658;14.004;2022-08-21T00:12:03;4.10;;;3.55;;
65418;SDS011;52027;50.658;14.004;2022-08-21T00:14:29;4.93;;;3.88;;
65418;SDS011;52027;50.658;14.004;2022-08-21T00:16:55;4.43;;;3.50;;
65418;SDS011;52027;50.658;14.004;2022-08-21T00:19:20;5.38;;;3.80;;
65418;SDS011;52027;50.658;14.004;2022-08-21T00:21:49;8.05;;;3.65;;
65418;SDS011;52027;50.658;14.004;2022-08-21T00:24:16;3.90;;;3.42;;
65418;SDS011;52027;50.658;14.004;2022-08-21T00:26:41;5.03;;;3.72;;
65418;SDS011;52027;50.658;14.004;2022-08-21T00:29:08;4.80;;;3.60;;
65418;SDS011;52027;50.658;14.004;2022-08-21T00:31:34;5.35;;;3.63;;
65418;SDS011;52027;50.658;14.004;2022-08-21T00:34:00;4.40;;;3.78;;
65418;SDS011;52027;50.658;14.004;2022-08-21T00:36:25;4.57;;;3.33;;
65418;SDS011;52027;50.658;14.004;2022-08-21T00:38:50;4.57;;;3.75;;
65418;SDS011;52027;50.658;14.004;2022-08-21T00:41:15;5.53;;;3.78;;
65418;SDS011;52027;50.658;14.004;2022-08-21T00:43:41;4.50;;;3.58;;
65418;SDS011;52027;50.658;14.004;2022-08-21T00:46:06;3.97;;;3.58;;
65418;SDS011;52027;50.658;14.004;2022-08-21T00:48:32;4.63;;;3.75;;
65418;SDS011;52027;50.658;14.004;2022-08-21T00:51:04;4.65;;;3.83;;
65418;SDS011;52027;50.658;14.004;2022-08-21T00:53:34;5.53;;;3.70;;
65418;SDS011;52027;50.658;14.004;2022-08-21T00:56:02;4.15;;;3.47;;
65418;SDS011;52027;50.658;14.004;2022-08-21T00:58:30;3.95;;;3.30;;
65418;SDS011;52027;50.658;14.004;2022-08-21T01:00:56;5.00;;;3.50;;
65418;SDS011;52027;50.658;14.004;2022-08-21T01:03:24;4.90;;;3.90;;
65418;SDS011;52027;50.658;14.004;2022-08-21T01:05:50;3.65;;;3.20;;
65418;SDS011;52027;50.658;14.004;2022-08-21T01:08:17;4.68;;;3.60;;
65418;SDS011;52027;50.658;14.004;2022-08-21T01:10:45;4.38;;;3.47;;
65418;SDS011;52027;50.658;14.004;2022-08-21T01:13:12;4.55;;;3.70;;
65418;SDS011;52027;50.658;14.004;2022-08-21T01:15:42;4.30;;;3.50;;
65418;SDS011;52027;50.658;14.004;2022-08-21T01:18:10;4.47;;;3.55;;
65418;SDS011;52027;50.658;14.004;2022-08-21T01:20:37;6.07;;;3.50;;
65418;SDS011;52027;50.658;14.004;2022-08-21T01:23:06;4.72;;;3.30;;
65418;SDS011;52027;50.658;14.004;2022-08-21T01:25:32;4.18;;;3.05;;
65418;SDS011;52027;50.658;14.004;2022-08-21T01:27:59;4.25;;;3.72;;
65418;SDS011;52027;50.658;14.004;2022-08-21T01:30:29;4.03;;;3.10;;
65418;SDS011;52027;50.658;14.004;2022-08-21T01:32:58;4.00;;;3.38;;
65418;SDS011;52027;50.658;14.004;2022-08-21T01:35:24;3.70;;;3.30;;
65418;SDS011;52027;50.658;14.004;2022-08-21T01:37:49;4.03;;;3.10;;
65418;SDS011;52027;50.658;14.004;2022-08-21T01:40:15;4.93;;;3.63;;
65418;SDS011;52027;50.658;14.004;2022-08-21T01:42:41;4.32;;;3.60;;
65418;SDS011;52027;50.658;14.004;2022-08-21T01:45:08;3.95;;;3.20;;
65418;SDS011;52027;50.658;14.004;2022-08-21T01:47:34;4.07;;;3.10;;
65418;SDS011;52027;50.658;14.004;2022-08-21T01:50:00;3.97;;;3.20;;
65418;SDS011;52027;50.658;14.004;2022-08-21T01:52:25;4.93;;;3.90;;
65418;SDS011;52027;50.658;14.004;2022-08-21T01:54:51;4.32;;;3.50;;
65418;SDS011;52027;50.658;14.004;2022-08-21T01:57:17;4.50;;;3.30;;
65418;SDS011;52027;50.658;14.004;2022-08-21T01:59:42;4.70;;;3.70;;
65418;SDS011;52027;50.658;14.004;2022-08-21T02:02:08;4.10;;;3.38;;
65418;SDS011;52027;50.658;14.004;2022-08-21T02:04:33;3.92;;;3.42;;
65418;SDS011;52027;50.658;14.004;2022-08-21T02:06:59;3.90;;;3.30;;
65418;SDS011;52027;50.658;14.004;2022-08-21T02:09:25;4.45;;;3.63;;
65418;SDS011;52027;50.658;14.004;2022-08-21T02:11:50;4.18;;;3.40;;
65418;SDS011;52027;50.658;14.004;2022-08-21T02:14:16;5.90;;;3.50;;
65418;SDS011;52027;50.658;14.004;2022-08-21T02:16:43;4.05;;;3.13;;
65418;SDS011;52027;50.658;14.004;2022-08-21T02:19:09;3.85;;;3.17;;
65418;SDS011;52027;50.658;14.004;2022-08-21T02:21:35;4.03;;;3.10;;
65418;SDS011;52027;50.658;14.004;2022-08-21T02:24:01;3.95;;;3.15;;
65418;SDS011;52027;50.658;14.004;2022-08-21T02:26:26;4.10;;;3.55;;
65418;SDS011;52027;50.658;14.004;2022-08-21T02:28:52;4.28;;;3.30;;
65418;SDS011;52027;50.658;14.004;2022-08-21T02:31:17;4.78;;;3.35;;
65418;SDS011;52027;50.658;14.004;2022-08-21T02:33:43;4.18;;;3.50;;
65418;SDS011;52027;50.658;14.004;2022-08-21T02:36:08;5.82;;;3.50;;
65418;SDS011;52027;50.658;14.004;2022-08-21T02:38:35;4.28;;;3.28;;
65418;SDS011;52027;50.658;14.004;2022-08-21T02:41:08;4.28;;;3.40;;
65418;SDS011;52027;50.658;14.004;2022-08-21T02:43:35;3.60;;;3.05;;
65418;SDS011;52027;50.658;14.004;2022-08-21T02:46:01;4.82;;;3.60;;
65418;SDS011;52027;50.658;14.004;2022-08-21T02:48:29;4.03;;;3.20;;
65418;SDS011;52027;50.658;14.004;2022-08-21T02:50:57;4.90;;;3.50;;
65418;SDS011;52027;50.658;14.004;2022-08-21T02:53:28;4.20;;;3.30;;
65418;SDS011;52027;50.658;14.004;2022-08-21T02:55:56;3.80;;;3.20;;
65418;SDS011;52027;50.658;14.004;2022-08-21T02:58:27;5.05;;;3.30;;
65418;SDS011;52027;50.658;14.004;2022-08-21T03:00:55;4.22;;;3.40;;
65418;SDS011;52027;50.658;14.004;2022-08-21T03:03:20;3.70;;;3.05;;
65418;SDS011;52027;50.658;14.004;2022-08-21T03:05:46;4.15;;;3.28;;
65418;SDS011;52027;50.658;14.004;2022-08-21T03:08:12;4.53;;;3.30;;
65418;SDS011;52027;50.658;14.004;2022-08-21T03:10:42;4.43;;;3.40;;
65418;SDS011;52027;50.658;14.004;2022-08-21T03:13:09;4.65;;;3.30;;
65418;SDS011;52027;50.658;14.004;2022-08-21T03:15:35;4.85;;;3.20;;
65418;SDS011;52027;50.658;14.004;2022-08-21T03:18:01;3.88;;;3.20;;
65418;SDS011;52027;50.658;14.004;2022-08-21T03:20:27;4.50;;;3.33;;
65418;SDS011;52027;50.658;14.004;2022-08-21T03:22:53;4.28;;;3.47;;
65418;SDS011;52027;50.658;14.004;2022-08-21T03:25:20;4.03;;;3.28;;
65418;SDS011;52027;50.658;14.004;2022-08-21T03:27:47;4.20;;;3.50;;
65418;SDS011;52027;50.658;14.004;2022-08-21T03:30:15;4.72;;;3.45;;
65418;SDS011;52027;50.658;14.004;2022-08-21T03:32:42;4.15;;;3.38;;
65418;SDS011;52027;50.658;14.004;2022-08-21T03:35:08;4.30;;;3.50;;
65418;SDS011;52027;50.658;14.004;2022-08-21T03:37:33;4.07;;;3.33;;
65418;SDS011;52027;50.658;14.004;2022-08-21T03:39:59;4.70;;;3.17;;
65418;SDS011;52027;50.658;14.004;2022-08-21T03:42:25;4.93;;;3.53;;
65418;SDS011;52027;50.658;14.004;2022-08-21T03:44:50;4.22;;;3.35;;
65418;SDS011;52027;50.658;14.004;2022-08-21T03:47:16;4.05;;;3.28;;
65418;SDS011;52027;50.658;14.004;2022-08-21T03:49:41;3.53;;;3.10;;
65418;SDS011;52027;50.658;14.004;2022-08-21T03:52:06;3.92;;;2.95;;
65418;SDS011;52027;50.658;14.004;2022-08-21T03:54:32;3.80;;;3.15;;
65418;SDS011;52027;50.658;14.004;2022-08-21T03:56:58;4.60;;;3.40;;
65418;SDS011;52027;50.658;14.004;2022-08-21T03:59:23;6.50;;;3.20;;
65418;SDS011;52027;50.658;14.004;2022-08-21T04:01:52;4.25;;;3.20;;
65418;SDS011;52027;50.658;14.004;2022-08-21T04:04:26;3.72;;;2.90;;
65418;SDS011;52027;50.658;14.004;2022-08-21T04:06:52;3.60;;;3.00;;
65418;SDS011;52027;50.658;14.004;2022-08-21T04:09:19;3.58;;;2.83;;
65418;SDS011;52027;50.658;14.004;2022-08-21T04:11:44;4.45;;;3.28;;
65418;SDS011;52027;50.658;14.004;2022-08-21T04:14:11;3.60;;;2.90;;
65418;SDS011;52027;50.658;14.004;2022-08-21T04:16:37;4.25;;;3.10;;
65418;SDS011;52027;50.658;14.004;2022-08-21T04:19:02;4.20;;;3.35;;
65418;SDS011;52027;50.658;14.004;2022-08-21T04:21:28;4.80;;;3.05;;
65418;SDS011;52027;50.658;14.004;2022-08-21T04:23:54;3.85;;;2.88;;
65418;SDS011;52027;50.658;14.004;2022-08-21T04:26:20;4.13;;;3.10;;
65418;SDS011;52027;50.658;14.004;2022-08-21T04:28:46;3.42;;;2.78;;
65418;SDS011;52027;50.658;14.004;2022-08-21T04:31:11;3.50;;;2.72;;
65418;SDS011;52027;50.658;14.004;2022-08-21T04:33:37;3.35;;;2.67;;
65418;SDS011;52027;50.658;14.004;2022-08-21T04:36:02;3.90;;;3.00;;
65418;SDS011;52027;50.658;14.004;2022-08-21T04:38:28;3.65;;;2.90;;
65418;SDS011;52027;50.658;14.004;2022-08-21T04:40:56;3.70;;;2.90;;
65418;SDS011;52027;50.658;14.004;2022-08-21T04:43:21;3.35;;;2.80;;
65418;SDS011;52027;50.658;14.004;2022-08-21T04:45:48;3.30;;;2.60;;
65418;SDS011;52027;50.658;14.004;2022-08-21T04:48:16;3.85;;;2.80;;
65418;SDS011;52027;50.658;14.004;2022-08-21T04:55:56;3.95;;;2.50;;
65418;SDS011;52027;50.658;14.004;2022-08-21T04:58:25;3.05;;;2.58;;
65418;SDS011;52027;50.658;14.004;2022-08-21T05:00:52;3.47;;;2.70;;
65418;SDS011;52027;50.658;14.004;2022-08-21T05:03:20;3.03;;;2.40;;
65418;SDS011;52027;50.658;14.004;2022-08-21T05:05:46;3.28;;;2.58;;
65418;SDS011;52027;50.658;14.004;2022-08-21T05:08:12;3.60;;;2.50;;
65418;SDS011;52027;50.658;14.004;2022-08-21T05:10:40;3.20;;;2.47;;
65418;SDS011;52027;50.658;14.004;2022-08-21T05:13:07;2.80;;;2.30;;
65418;SDS011;52027;50.658;14.004;2022-08-21T05:15:32;5.15;;;3.05;;
65418;SDS011;52027;50.658;14.004;2022-08-21T05:17:57;3.33;;;2.38;;
65418;SDS011;52027;50.658;14.004;2022-08-21T05:20:23;4.00;;;2.40;;
65418;SDS011;52027;50.658;14.004;2022-08-21T05:22:48;3.50;;;2.25;;
65418;SDS011;52027;50.658;14.004;2022-08-21T05:25:14;3.25;;;2.30;;
65418;SDS011;52027;50.658;14.004;2022-08-21T05:27:39;3.47;;;2.50;;
65418;SDS011;52027;50.658;14.004;2022-08-21T05:30:06;3.05;;;2.22;;
65418;SDS011;52027;50.658;14.004;2022-08-21T05:32:34;4.63;;;2.25;;
65418;SDS011;52027;50.658;14.004;2022-08-21T05:35:00;2.90;;;2.30;;
65418;SDS011;52027;50.658;14.004;2022-08-21T05:37:25;3.72;;;2.20;;
65418;SDS011;52027;50.658;14.004;2022-08-21T05:39:51;3.17;;;2.20;;
65418;SDS011;52027;50.658;14.004;2022-08-21T05:42:16;2.70;;;2.10;;
65418;SDS011;52027;50.658;14.004;2022-08-21T05:44:41;3.42;;;2.40;;
65418;SDS011;52027;50.658;14.004;2022-08-21T05:47:09;2.67;;;2.10;;
65418;SDS011;52027;50.658;14.004;2022-08-21T05:49:35;2.42;;;1.83;;
65418;SDS011;52027;50.658;14.004;2022-08-21T05:52:01;3.10;;;2.10;;
65418;SDS011;52027;50.658;14.004;2022-08-21T05:54:28;2.58;;;2.10;;
65418;SDS011;52027;50.658;14.004;2022-08-21T05:56:54;2.70;;;1.90;;
65418;SDS011;52027;50.658;14.004;2022-08-21T05:59:20;3.30;;;2.00;;
65418;SDS011;52027;50.658;14.004;2022-08-21T06:01:45;2.60;;;1.83;;
65418;SDS011;52027;50.658;14.004;2022-08-21T06:04:11;3.60;;;1.92;;
65418;SDS011;52027;50.658;14.004;2022-08-21T06:06:36;3.00;;;2.10;;
65418;SDS011;52027;50.658;14.004;2022-08-21T06:09:02;2.60;;;2.00;;
65418;SDS011;52027;50.658;14.004;2022-08-21T06:11:28;2.60;;;1.90;;
65418;SDS011;52027;50.658;14.004;2022-08-21T06:13:54;2.40;;;1.95;;
65418;SDS011;52027;50.658;14.004;2022-08-21T06:16:19;2.95;;;1.90;;
65418;SDS011;52027;50.658;14.004;2022-08-21T06:18:45;2.70;;;1.80;;
65418;SDS011;52027;50.658;14.004;2022-08-21T06:21:10;2.92;;;2.10;;
65418;SDS011;52027;50.658;14.004;2022-08-21T06:23:38;2.75;;;2.00;;
65418;SDS011;52027;50.658;14.004;2022-08-21T06:26:04;2.25;;;1.80;;
65418;SDS011;52027;50.658;14.004;2022-08-21T06:28:32;2.70;;;1.90;;
65418;SDS011;52027;50.658;14.004;2022-08-21T06:30:58;3.60;;;2.00;;
65418;SDS011;52027;50.658;14.004;2022-08-21T06:33:23;2.60;;;2.03;;
65418;SDS011;52027;50.658;14.004;2022-08-21T06:35:49;2.90;;;2.00;;
65418;SDS011;52027;50.658;14.004;2022-08-21T06:38:14;2.83;;;2.00;;
65418;SDS011;52027;50.658;14.004;2022-08-21T06:40:40;2.72;;;1.95;;
65418;SDS011;52027;50.658;14.004;2022-08-21T06:43:09;2.80;;;2.00;;
65418;SDS011;52027;50.658;14.004;2022-08-21T06:45:37;2.70;;;1.90;;
65418;SDS011;52027;50.658;14.004;2022-08-21T06:48:03;4.15;;;2.00;;
65418;SDS011;52027;50.658;14.004;2022-08-21T06:50:29;2.80;;;2.13;;
65418;SDS011;52027;50.658;14.004;2022-08-21T06:53:03;3.00;;;2.00;;
65418;SDS011;52027;50.658;14.004;2022-08-21T06:55:32;2.60;;;2.03;;
65418;SDS011;52027;50.658;14.004;2022-08-21T06:57:57;2.70;;;2.00;;
65418;SDS011;52027;50.658;14.004;2022-08-21T07:00:23;3.20;;;2.00;;
65418;SDS011;52027;50.658;14.004;2022-08-21T07:02:48;3.28;;;2.10;;
65418;SDS011;52027;50.658;14.004;2022-08-21T07:05:14;2.67;;;2.00;;
65418;SDS011;52027;50.658;14.004;2022-08-21T07:07:39;2.65;;;2.10;;
65418;SDS011;52027;50.658;14.004;2022-08-21T07:10:05;2.60;;;1.80;;
65418;SDS011;52027;50.658;14.004;2022-08-21T07:12:30;2.75;;;1.80;;
65418;SDS011;52027;50.658;14.004;2022-08-21T07:14:56;2.38;;;1.75;;
65418;SDS011;52027;50.658;14.004;2022-08-21T07:17:21;2.47;;;1.90;;
65418;SDS011;52027;50.658;14.004;2022-08-21T07:19:47;2.47;;;1.80;;
65418;SDS011;52027;50.658;14.004;2022-08-21T07:22:12;2.30;;;1.77;;
65418;SDS011;52027;50.658;14.004;2022-08-21T07:24:40;2.53;;;1.90;;
65418;SDS011;52027;50.658;14.004;2022-08-21T07:27:06;2.30;;;1.70;;
65418;SDS011;52027;50.658;14.004;2022-08-21T07:29:31;2.80;;;1.80;;
65418;SDS011;52027;50.658;14.004;2022-08-21T07:31:56;2.75;;;1.70;;
65418;SDS011;52027;50.658;14.004;2022-08-21T07:34:22;2.45;;;1.88;;
65418;SDS011;52027;50.658;14.004;2022-08-21T07:36:47;2.35;;;1.80;;
65418;SDS011;52027;50.658;14.004;2022-08-21T07:39:12;2.35;;;1.70;;
65418;SDS011;52027;50.658;14.004;2022-08-21T07:41:38;2.40;;;1.73;;
65418;SDS011;52027;50.658;14.004;2022-08-21T07:44:03;2.38;;;1.80;;
65418;SDS011;52027;50.658;14.004;2022-08-21T07:46:28;3.35;;;2.00;;
65418;SDS011;52027;50.658;14.004;2022-08-21T07:48:54;2.80;;;1.90;;
65418;SDS011;52027;50.658;14.004;2022-08-21T07:51:20;2.40;;;1.70;;
65418;SDS011;52027;50.658;14.004;2022-08-21T07:53:52;3.72;;;1.83;;
65418;SDS011;52027;50.658;14.004;2022-08-21T07:56:18;2.90;;;1.83;;
65418;SDS011;52027;50.658;14.004;2022-08-21T07:58:45;2.47;;;1.70;;
65418;SDS011;52027;50.658;14.004;2022-08-21T08:01:10;2.40;;;1.70;;
65418;SDS011;52027;50.658;14.004;2022-08-21T08:03:36;2.47;;;1.70;;
65418;SDS011;52027;50.658;14.004;2022-08-21T08:06:01;2.40;;;1.80;;
65418;SDS011;52027;50.658;14.004;2022-08-21T08:08:29;2.45;;;1.70;;
65418;SDS011;52027;50.658;14.004;2022-08-21T08:10:55;2.33;;;1.73;;
65418;SDS011;52027;50.658;14.004;2022-08-21T08:13:22;2.03;;;1.60;;
65418;SDS011;52027;50.658;14.004;2022-08-21T08:15:47;2.50;;;1.70;;
65418;SDS011;52027;50.658;14.004;2022-08-21T08:18:13;2.30;;;1.77;;
65418;SDS011;52027;50.658;14.004;2022-08-21T08:20:38;2.50;;;1.90;;
65418;SDS011;52027;50.658;14.004;2022-08-21T08:23:04;2.47;;;1.80;;
65418;SDS011;52027;50.658;14.004;2022-08-21T08:25:29;2.58;;;2.00;;
65418;SDS011;52027;50.658;14.004;2022-08-21T08:27:55;2.85;;;2.00;;
65418;SDS011;52027;50.658;14.004;2022-08-21T08:30:20;3.22;;;2.00;;
65418;SDS011;52027;50.658;14.004;2022-08-21T08:32:47;2.67;;;1.90;;
65418;SDS011;52027;50.658;14.004;2022-08-21T08:35:13;2.50;;;1.80;;
65418;SDS011;52027;50.658;14.004;2022-08-21T08:37:39;2.47;;;1.88;;
65418;SDS011;52027;50.658;14.004;2022-08-21T08:40:06;2.60;;;1.83;;
65418;SDS011;52027;50.658;14.004;2022-08-21T08:42:35;2.95;;;2.00;;
65418;SDS011;52027;50.658;14.004;2022-08-21T08:45:03;3.05;;;1.83;;
65418;SDS011;52027;50.658;14.004;2022-08-21T08:47:35;2.85;;;1.90;;
65418;SDS011;52027;50.658;14.004;2022-08-21T08:52:56;2.70;;;1.80;;
65418;SDS011;52027;50.658;14.004;2022-08-21T08:55:36;2.30;;;1.70;;
65418;SDS011;52027;50.658;14.004;2022-08-21T08:58:04;3.17;;;2.00;;
65418;SDS011;52027;50.658;14.004;2022-08-21T09:00:30;2.70;;;1.90;;
65418;SDS011;52027;50.658;14.004;2022-08-21T09:02:57;3.10;;;2.10;;
65418;SDS011;52027;50.658;14.004;2022-08-21T09:05:26;2.60;;;1.85;;
65418;SDS011;52027;50.658;14.004;2022-08-21T09:08:00;2.97;;;2.03;;
65418;SDS011;52027;50.658;14.004;2022-08-21T09:10:48;3.10;;;2.00;;
65418;SDS011;52027;50.658;14.004;2022-08-21T09:13:38;2.80;;;2.08;;
65418;SDS011;52027;50.658;14.004;2022-08-21T09:16:11;2.85;;;2.00;;
65418;SDS011;52027;50.658;14.004;2022-08-21T09:26:47;2.55;;;1.80;;
65418;SDS011;52027;50.658;14.004;2022-08-21T09:29:20;3.25;;;2.17;;
65418;SDS011;52027;50.658;14.004;2022-08-21T09:31:49;2.83;;;2.10;;
65418;SDS011;52027;50.658;14.004;2022-08-21T09:34:23;2.50;;;1.83;;
65418;SDS011;52027;50.658;14.004;2022-08-21T09:36:51;2.47;;;1.98;;
65418;SDS011;52027;50.658;14.004;2022-08-21T09:39:30;2.72;;;1.95;;
65418;SDS011;52027;50.658;14.004;2022-08-21T09:42:03;2.95;;;1.90;;
65418;SDS011;52027;50.658;14.004;2022-08-21T09:44:32;3.35;;;1.80;;
65418;SDS011;52027;50.658;14.004;2022-08-21T09:46:59;2.72;;;1.98;;
65418;SDS011;52027;50.658;14.004;2022-08-21T09:49:29;2.60;;;1.90;;
65418;SDS011;52027;50.658;14.004;2022-08-21T09:51:56;2.95;;;2.08;;
65418;SDS011;52027;50.658;14.004;2022-08-21T09:54:26;3.05;;;2.10;;
65418;SDS011;52027;50.658;14.004;2022-08-21T09:56:57;2.63;;;1.80;;
65418;SDS011;52027;50.658;14.004;2022-08-21T09:59:43;2.35;;;1.90;;
65418;SDS011;52027;50.658;14.004;2022-08-21T10:02:30;2.50;;;1.92;;
65418;SDS011;52027;50.658;14.004;2022-08-21T10:04:58;3.28;;;2.20;;
65418;SDS011;52027;50.658;14.004;2022-08-21T10:07:28;2.55;;;1.95;;
65418;SDS011;52027;50.658;14.004;2022-08-21T10:09:59;3.00;;;2.30;;
65418;SDS011;52027;50.658;14.004;2022-08-21T10:12:33;2.75;;;1.98;;
65418;SDS011;52027;50.658;14.004;2022-08-21T10:18:07;2.67;;;2.05;;
65418;SDS011;52027;50.658;14.004;2022-08-21T10:20:49;3.15;;;2.10;;
65418;SDS011;52027;50.658;14.004;2022-08-21T10:28:51;2.90;;;2.20;;
65418;SDS011;52027;50.658;14.004;2022-08-21T10:48:27;3.58;;;2.10;;
65418;SDS011;52027;50.658;14.004;2022-08-21T10:51:10;3.50;;;2.17;;
65418;SDS011;52027;50.658;14.004;2022-08-21T10:53:55;2.85;;;2.00;;
65418;SDS011;52027;50.658;14.004;2022-08-21T10:56:30;3.17;;;2.20;;
65418;SDS011;52027;50.658;14.004;2022-08-21T10:59:07;4.03;;;2.28;;
65418;SDS011;52027;50.658;14.004;2022-08-21T11:06:54;3.15;;;2.17;;
65418;SDS011;52027;50.658;14.004;2022-08-21T11:09:25;4.18;;;2.30;;
65418;SDS011;52027;50.658;14.004;2022-08-21T11:12:10;3.08;;;2.28;;
65418;SDS011;52027;50.658;14.004;2022-08-21T11:20:56;3.22;;;2.30;;
65418;SDS011;52027;50.658;14.004;2022-08-21T11:23:43;4.00;;;2.00;;
65418;SDS011;52027;50.658;14.004;2022-08-21T11:26:15;2.70;;;2.10;;
65418;SDS011;52027;50.658;14.004;2022-08-21T11:28:54;2.90;;;2.00;;
65418;SDS011;52027;50.658;14.004;2022-08-21T11:31:56;3.00;;;2.17;;
65418;SDS011;52027;50.658;14.004;2022-08-21T11:37:30;3.47;;;2.20;;
65418;SDS011;52027;50.658;14.004;2022-08-21T11:45:54;3.42;;;2.20;;
65418;SDS011;52027;50.658;14.004;2022-08-21T11:50:46;3.10;;;2.20;;
65418;SDS011;52027;50.658;14.004;2022-08-21T12:00:44;3.00;;;2.20;;
65418;SDS011;52027;50.658;14.004;2022-08-21T12:03:23;3.80;;;2.13;;
65418;SDS011;52027;50.658;14.004;2022-08-21T12:05:52;3.20;;;2.20;;
65418;SDS011;52027;50.658;14.004;2022-08-21T12:08:42;3.72;;;2.15;;
65418;SDS011;52027;50.658;14.004;2022-08-21T12:16:33;5.38;;;2.22;;
65418;SDS011;52027;50.658;14.004;2022-08-21T12:19:12;3.30;;;2.10;;
65418;SDS011;52027;50.658;14.004;2022-08-21T12:22:07;3.60;;;2.20;;
65418;SDS011;52027;50.658;14.004;2022-08-21T12:29:48;3.15;;;2.00;;
65418;SDS011;52027;50.658;14.004;2022-08-21T12:35:01;3.83;;;2.23;;
65418;SDS011;52027;50.658;14.004;2022-08-21T12:37:44;3.70;;;2.22;;
65418;SDS011;52027;50.658;14.004;2022-08-21T12:40:22;3.45;;;2.08;;
65418;SDS011;52027;50.658;14.004;2022-08-21T12:43:17;5.75;;;2.50;;
65418;SDS011;52027;50.658;14.004;2022-08-21T12:45:46;2.90;;;2.22;;
65418;SDS011;52027;50.658;14.004;2022-08-21T12:48:17;4.88;;;2.40;;
65418;SDS011;52027;50.658;14.004;2022-08-21T12:53:25;3.63;;;2.30;;
65418;SDS011;52027;50.658;14.004;2022-08-21T12:55:55;4.45;;;2.25;;
65418;SDS011;52027;50.658;14.004;2022-08-21T12:58:26;3.33;;;2.47;;
65418;SDS011;52027;50.658;14.004;2022-08-21T13:00:56;3.80;;;2.20;;
65418;SDS011;52027;50.658;14.004;2022-08-21T13:03:27;3.30;;;2.30;;
65418;SDS011;52027;50.658;14.004;2022-08-21T13:05:53;4.10;;;2.33;;
65418;SDS011;52027;50.658;14.004;2022-08-21T13:08:20;4.13;;;2.30;;
65418;SDS011;52027;50.658;14.004;2022-08-21T13:10:49;4.43;;;2.28;;
65418;SDS011;52027;50.658;14.004;2022-08-21T13:13:22;3.53;;;2.30;;
65418;SDS011;52027;50.658;14.004;2022-08-21T13:15:49;3.85;;;2.10;;
65418;SDS011;52027;50.658;14.004;2022-08-21T13:18:22;3.85;;;2.20;;
65418;SDS011;52027;50.658;14.004;2022-08-21T13:20:49;3.60;;;2.20;;
65418;SDS011;52027;50.658;14.004;2022-08-21T13:25:55;4.82;;;2.28;;
65418;SDS011;52027;50.658;14.004;2022-08-21T13:28:21;3.00;;;2.15;;
65418;SDS011;52027;50.658;14.004;2022-08-21T13:30:51;3.33;;;2.17;;
65418;SDS011;52027;50.658;14.004;2022-08-21T13:33:20;3.45;;;2.22;;
65418;SDS011;52027;50.658;14.004;2022-08-21T13:38:50;3.45;;;2.20;;
65418;SDS011;52027;50.658;14.004;2022-08-21T13:46:43;3.42;;;2.30;;
65418;SDS011;52027;50.658;14.004;2022-08-21T13:49:09;3.50;;;2.25;;
65418;SDS011;52027;50.658;14.004;2022-08-21T13:51:37;3.58;;;2.50;;
65418;SDS011;52027;50.658;14.004;2022-08-21T13:54:20;3.80;;;2.30;;
65418;SDS011;52027;50.658;14.004;2022-08-21T13:59:27;3.33;;;2.30;;
65418;SDS011;52027;50.658;14.004;2022-08-21T14:02:10;3.75;;;2.40;;
65418;SDS011;52027;50.658;14.004;2022-08-21T14:04:42;3.67;;;2.35;;
65418;SDS011;52027;50.658;14.004;2022-08-21T14:07:33;3.83;;;2.33;;
65418;SDS011;52027;50.658;14.004;2022-08-21T14:10:20;4.22;;;2.42;;
65418;SDS011;52027;50.658;14.004;2022-08-21T14:12:48;3.80;;;2.03;;
65418;SDS011;52027;50.658;14.004;2022-08-21T14:15:18;3.42;;;2.40;;
65418;SDS011;52027;50.658;14.004;2022-08-21T14:17:48;3.80;;;2.15;;
65418;SDS011;52027;50.658;14.004;2022-08-21T14:20:30;3.75;;;2.20;;
65418;SDS011;52027;50.658;14.004;2022-08-21T14:22:58;3.72;;;2.25;;
65418;SDS011;52027;50.658;14.004;2022-08-21T14:32:49;3.83;;;2.50;;
65418;SDS011;52027;50.658;14.004;2022-08-21T14:35:15;3.45;;;2.40;;
65418;SDS011;52027;50.658;14.004;2022-08-21T14:37:43;3.70;;;2.53;;
65418;SDS011;52027;50.658;14.004;2022-08-21T14:40:12;3.30;;;2.25;;
65418;SDS011;52027;50.658;14.004;2022-08-21T14:42:37;3.33;;;2.17;;
65418;SDS011;52027;50.658;14.004;2022-08-21T14:45:08;4.45;;;2.33;;
65418;SDS011;52027;50.658;14.004;2022-08-21T14:47:39;3.25;;;2.30;;
65418;SDS011;52027;50.658;14.004;2022-08-21T14:50:05;3.38;;;2.30;;
65418;SDS011;52027;50.658;14.004;2022-08-21T14:52:30;3.00;;;2.20;;
65418;SDS011;52027;50.658;14.004;2022-08-21T14:54:56;2.95;;;2.10;;
65418;SDS011;52027;50.658;14.004;2022-08-21T14:57:21;3.97;;;2.35;;
65418;SDS011;52027;50.658;14.004;2022-08-21T14:59:48;4.15;;;2.35;;
65418;SDS011;52027;50.658;14.004;2022-08-21T15:02:14;3.20;;;2.20;;
65418;SDS011;52027;50.658;14.004;2022-08-21T15:04:39;4.35;;;2.30;;
65418;SDS011;52027;50.658;14.004;2022-08-21T15:07:05;3.38;;;2.28;;
65418;SDS011;52027;50.658;14.004;2022-08-21T15:09:30;3.50;;;2.30;;
65418;SDS011;52027;50.658;14.004;2022-08-21T15:11:56;3.80;;;2.50;;
65418;SDS011;52027;50.658;14.004;2022-08-21T15:14:26;3.80;;;2.55;;
65418;SDS011;52027;50.658;14.004;2022-08-21T15:16:53;3.55;;;2.38;;
65418;SDS011;52027;50.658;14.004;2022-08-21T15:19:18;3.17;;;2.28;;
65418;SDS011;52027;50.658;14.004;2022-08-21T15:21:44;4.47;;;2.42;;
65418;SDS011;52027;50.658;14.004;2022-08-21T15:24:09;3.53;;;2.45;;
65418;SDS011;52027;50.658;14.004;2022-08-21T15:26:35;5.85;;;2.38;;
65418;SDS011;52027;50.658;14.004;2022-08-21T15:29:01;3.80;;;2.30;;
65418;SDS011;52027;50.658;14.004;2022-08-21T15:31:27;3.42;;;2.30;;
65418;SDS011;52027;50.658;14.004;2022-08-21T15:33:53;3.45;;;2.40;;
65418;SDS011;52027;50.658;14.004;2022-08-21T15:36:19;3.75;;;2.33;;
65418;SDS011;52027;50.658;14.004;2022-08-21T15:38:44;4.28;;;2.55;;
65418;SDS011;52027;50.658;14.004;2022-08-21T15:41:10;3.55;;;2.50;;
65418;SDS011;52027;50.658;14.004;2022-08-21T15:43:44;3.53;;;2.60;;
65418;SDS011;52027;50.658;14.004;2022-08-21T15:46:13;4.10;;;2.63;;
65418;SDS011;52027;50.658;14.004;2022-08-21T15:48:40;4.53;;;2.55;;
65418;SDS011;52027;50.658;14.004;2022-08-21T15:51:06;4.03;;;2.65;;
65418;SDS011;52027;50.658;14.004;2022-08-21T15:53:32;4.10;;;2.47;;
65418;SDS011;52027;50.658;14.004;2022-08-21T15:56:01;4.47;;;2.80;;
65418;SDS011;52027;50.658;14.004;2022-08-21T15:58:27;3.53;;;2.50;;
65418;SDS011;52027;50.658;14.004;2022-08-21T16:00:53;3.55;;;2.50;;
65418;SDS011;52027;50.658;14.004;2022-08-21T16:03:18;4.35;;;2.58;;
65418;SDS011;52027;50.658;14.004;2022-08-21T16:05:46;3.45;;;2.33;;
65418;SDS011;52027;50.658;14.004;2022-08-21T16:08:17;4.10;;;2.60;;
65418;SDS011;52027;50.658;14.004;2022-08-21T16:10:43;3.25;;;2.33;;
65418;SDS011;52027;50.658;14.004;2022-08-21T16:13:14;4.18;;;2.60;;
65418;SDS011;52027;50.658;14.004;2022-08-21T16:18:09;3.47;;;2.40;;
65418;SDS011;52027;50.658;14.004;2022-08-21T16:20:35;4.32;;;2.70;;
65418;SDS011;52027;50.658;14.004;2022-08-21T16:23:00;3.92;;;2.60;;
65418;SDS011;52027;50.658;14.004;2022-08-21T16:25:25;3.80;;;2.50;;
65418;SDS011;52027;50.658;14.004;2022-08-21T16:27:54;4.78;;;2.90;;
65418;SDS011;52027;50.658;14.004;2022-08-21T16:30:23;3.40;;;2.47;;
65418;SDS011;52027;50.658;14.004;2022-08-21T16:32:48;3.53;;;2.45;;